Time;durP1;ratioP1;P1;durP2;ratioP2;P2;SDS_P1;SDS_P2;PMS_P1;PMS_P2;Temp;Humidity;BMP_temperature;BMP_pressure;BME280_temperature;BME280_humidity;BME280_pressure;Samples;Min_cycle;Max_cycle;Signal;HPM_P1;HPM_P2
2021/06/29 00:01:15;;;;;;;12.60;8.13;;;;;;;17.27;63.28;100234.06;1688006;82;27431;-60
2021/06/29 00:03:41;;;;;;;18.90;11.03;;;;;;;17.26;63.22;100232.47;1639263;84;25944;-61
2021/06/29 00:06:08;;;;;;;9.75;8.10;;;;;;;17.23;63.27;100227.70;1627875;85;26407;-61
2021/06/29 00:08:35;;;;;;;14.50;8.03;;;;;;;17.18;63.11;100227.42;1647657;84;26623;-62
2021/06/29 00:11:01;;;;;;;16.20;9.23;;;;;;;17.13;63.04;100223.02;1707417;81;26463;-61
2021/06/29 00:13:28;;;;;;;12.90;9.50;;;;;;;17.07;63.16;100214.86;1701428;81;27390;-61
2021/06/29 00:15:55;;;;;;;16.73;9.38;;;;;;;17.01;63.32;100214.11;1694600;81;27272;-61
2021/06/29 00:18:21;;;;;;;14.38;9.08;;;;;;;16.94;63.52;100210.09;1702565;81;26426;-61
2021/06/29 00:20:47;;;;;;;15.23;9.05;;;;;;;16.93;63.74;100210.44;1693252;81;25867;-61
2021/06/29 00:23:14;;;;;;;15.30;9.13;;;;;;;16.91;64.22;100208.64;1699520;82;25875;-62
2021/06/29 00:25:41;;;;;;;13.80;9.23;;;;;;;16.91;64.44;100211.38;1707160;82;27351;-64
2021/06/29 00:28:08;;;;;;;11.35;7.97;;;;;;;16.90;64.47;100215.23;1704429;82;26338;-63
2021/06/29 00:30:35;;;;;;;14.23;8.20;;;;;;;16.86;64.40;100211.64;1692562;81;25822;-63
2021/06/29 00:33:02;;;;;;;12.65;8.20;;;;;;;16.84;64.43;100213.87;1679569;83;27836;-64
2021/06/29 00:35:28;;;;;;;15.08;7.97;;;;;;;16.78;64.30;100214.14;1668782;83;25599;-64
2021/06/29 00:37:54;;;;;;;11.65;7.72;;;;;;;16.74;64.50;100213.86;1686316;83;27221;-64
2021/06/29 00:40:21;;;;;;;17.45;8.33;;;;;;;16.69;64.76;100210.02;1679668;83;25820;-64
2021/06/29 00:42:47;;;;;;;14.15;9.00;;;;;;;16.62;64.69;100208.69;1694124;82;25853;-64
2021/06/29 00:45:14;;;;;;;15.83;8.78;;;;;;;16.56;64.98;100207.35;1708052;81;25887;-64
2021/06/29 00:47:41;;;;;;;17.82;9.30;;;;;;;16.50;65.20;100206.59;1692384;82;26545;-64
2021/06/29 00:50:09;;;;;;;14.50;8.98;;;;;;;16.48;65.34;100197.42;1700338;81;27481;-65
2021/06/29 00:52:40;;;;;;;12.70;8.40;;;;;;;16.47;65.48;100210.84;1692720;81;25684;-64
2021/06/29 00:55:10;;;;;;;14.68;8.43;;;;;;;16.43;65.57;100202.55;1635844;85;25972;-64
2021/06/29 00:57:37;;;;;;;11.73;8.90;;;;;;;16.41;65.58;100204.03;1696008;81;26449;-64
2021/06/29 01:00:07;;;;;;;12.43;9.05;;;;;;;16.41;65.93;100201.30;1696090;81;25632;-64
2021/06/29 01:02:34;;;;;;;10.72;8.30;;;;;;;16.40;65.84;100203.84;1696880;81;27428;-64
2021/06/29 01:05:02;;;;;;;12.40;8.73;;;;;;;16.38;66.02;100202.03;1701100;82;26568;-64
2021/06/29 01:07:29;;;;;;;15.48;9.15;;;;;;;16.36;66.38;100191.46;1689207;81;25729;-64
2021/06/29 01:09:56;;;;;;;11.28;8.98;;;;;;;16.35;66.23;100202.14;1693040;81;25934;-64
2021/06/29 01:12:22;;;;;;;11.63;9.35;;;;;;;16.36;66.40;100198.84;1707158;81;25808;-64
2021/06/29 01:14:49;;;;;;;14.35;8.95;;;;;;;16.34;66.35;100195.09;1695940;81;27506;-64
2021/06/29 01:17:18;;;;;;;13.03;9.40;;;;;;;16.32;66.35;100191.92;1702691;81;26417;-63
2021/06/29 01:19:46;;;;;;;15.72;9.95;;;;;;;16.31;66.52;100197.18;1708601;81;25852;-64
2021/06/29 01:22:15;;;;;;;14.75;10.10;;;;;;;16.30;66.69;100196.95;1707835;81;26435;-64
2021/06/29 01:24:50;;;;;;;15.30;10.28;;;;;;;16.30;66.90;100195.58;1703311;81;26624;-64
2021/06/29 01:27:24;;;;;;;17.07;11.95;;;;;;;16.28;66.94;100192.41;1701063;81;27392;-64
2021/06/29 01:32:16;;;;;;;19.35;9.13;;;;;;;16.25;67.35;100193.11;1657401;82;26551;-64
2021/06/29 01:34:43;;;;;;;16.75;9.60;;;;;;;16.23;67.09;100194.81;1636151;85;25722;-63
2021/06/29 01:37:09;;;;;;;13.65;9.68;;;;;;;16.22;67.04;100199.26;1658625;83;25682;-63
2021/06/29 01:39:36;;;;;;;15.18;9.53;;;;;;;16.19;67.21;100202.13;1702737;81;27442;-64
2021/06/29 01:42:04;;;;;;;13.03;9.85;;;;;;;16.16;67.32;100197.95;1699855;81;25853;-62
2021/06/29 01:44:33;;;;;;;19.82;11.20;;;;;;;16.12;67.79;100201.12;1703103;81;25718;-62
2021/06/29 01:47:00;;;;;;;18.07;10.72;;;;;;;16.04;67.80;100191.39;1689817;82;25978;-63
2021/06/29 01:49:28;;;;;;;19.20;11.88;;;;;;;16.03;67.92;100195.83;1694439;82;25916;-62
2021/06/29 01:51:56;;;;;;;16.48;10.25;;;;;;;16.01;68.15;100196.17;1699451;81;27491;-63
2021/06/29 01:54:23;;;;;;;14.75;10.48;;;;;;;16.02;68.03;100199.69;1691913;81;26579;-62
2021/06/29 01:56:51;;;;;;;17.65;12.05;;;;;;;16.01;68.05;100198.12;1700734;81;26600;-63
2021/06/29 01:59:20;;;;;;;14.95;10.58;;;;;;;16.01;68.42;100200.84;1696435;81;25697;-63
2021/06/29 02:01:46;;;;;;;16.37;11.43;;;;;;;15.99;68.43;100191.64;1701174;81;26097;-63
2021/06/29 02:04:13;;;;;;;19.92;12.30;;;;;;;15.97;68.50;100187.66;1706244;81;27304;-63
2021/06/29 02:06:42;;;;;;;16.40;12.25;;;;;;;15.96;68.70;100185.52;1700036;82;25759;-63
2021/06/29 02:09:10;;;;;;;18.87;11.60;;;;;;;15.94;68.92;100185.08;1698223;81;25762;-63
2021/06/29 02:11:38;;;;;;;16.20;10.85;;;;;;;15.94;69.02;100180.98;1696318;82;26288;-63
2021/06/29 02:14:06;;;;;;;15.80;11.00;;;;;;;15.92;68.87;100181.91;1697330;81;25670;-63
2021/06/29 02:16:35;;;;;;;18.07;11.22;;;;;;;15.91;68.81;100180.31;1700607;82;27912;-64
2021/06/29 02:19:01;;;;;;;17.98;11.97;;;;;;;15.90;69.00;100185.53;1700585;81;25873;-63
2021/06/29 02:21:28;;;;;;;16.30;10.98;;;;;;;15.89;68.95;100185.91;1704321;81;25902;-64
2021/06/29 02:23:54;;;;;;;15.48;10.82;;;;;;;15.86;69.08;100186.80;1703808;82;25808;-64
2021/06/29 02:26:20;;;;;;;14.50;10.23;;;;;;;15.86;69.09;100184.06;1699907;81;25716;-64
2021/06/29 02:28:47;;;;;;;12.90;10.65;;;;;;;15.85;68.91;100174.32;1695645;82;28048;-64
2021/06/29 02:31:13;;;;;;;14.15;10.82;;;;;;;15.84;69.05;100172.72;1682923;82;25733;-64
2021/06/29 02:33:40;;;;;;;14.87;11.28;;;;;;;15.82;68.95;100172.86;1710624;81;26552;-64
2021/06/29 02:36:07;;;;;;;19.10;11.73;;;;;;;15.82;69.12;100179.09;1703175;81;26634;-64
2021/06/29 02:38:35;;;;;;;16.35;11.22;;;;;;;15.82;69.23;100176.95;1682664;81;25894;-64
2021/06/29 02:41:03;;;;;;;17.15;11.75;;;;;;;15.82;69.28;100171.50;1703497;81;27548;-64
2021/06/29 02:43:30;;;;;;;18.65;12.07;;;;;;;15.83;69.38;100175.24;1701003;81;27259;-64
2021/06/29 02:45:57;;;;;;;17.25;10.93;;;;;;;15.84;69.53;100172.72;1628102;85;26781;-64
2021/06/29 02:48:23;;;;;;;13.50;10.60;;;;;;;15.84;69.48;100174.08;1631692;85;25911;-64
2021/06/29 02:50:50;;;;;;;17.05;11.20;;;;;;;15.86;69.63;100172.37;1706277;81;25758;-64
2021/06/29 02:53:16;;;;;;;13.58;10.43;;;;;;;15.86;69.70;100166.92;1685651;83;27548;-64
2021/06/29 02:55:42;;;;;;;16.27;11.33;;;;;;;15.86;69.67;100165.56;1688137;83;25873;-64
2021/06/29 02:58:09;;;;;;;15.93;11.05;;;;;;;15.86;69.62;100170.44;1705291;82;25808;-64
2021/06/29 03:00:35;;;;;;;15.20;11.05;;;;;;;15.84;69.51;100174.08;1696768;81;25836;-64
2021/06/29 03:03:01;;;;;;;13.08;10.88;;;;;;;15.84;69.58;100174.08;1704900;81;25897;-64
2021/06/29 03:05:28;;;;;;;15.98;10.80;;;;;;;15.84;69.58;100173.30;1699912;81;27374;-64
2021/06/29 03:07:54;;;;;;;13.28;10.55;;;;;;;15.83;69.66;100169.79;1690631;81;25916;-64
2021/06/29 03:10:21;;;;;;;13.53;10.80;;;;;;;15.84;69.66;100174.08;1661892;83;26086;-64
2021/06/29 03:12:47;;;;;;;14.28;10.13;;;;;;;15.84;69.73;100178.17;1700911;81;26764;-64
2021/06/29 03:15:14;;;;;;;14.15;10.60;;;;;;;15.85;69.80;100177.05;1691570;82;25929;-64
2021/06/29 03:17:41;;;;;;;19.98;11.38;;;;;;;15.86;70.05;100177.83;1706975;81;27413;-64
2021/06/29 03:20:10;;;;;;;19.02;14.28;;;;;;;15.86;70.06;100178.61;1705495;81;25914;-65
2021/06/29 03:22:38;;;;;;;15.95;11.97;;;;;;;15.89;70.36;100179.09;1707674;81;25959;-63
2021/06/29 03:25:08;;;;;;;14.70;11.60;;;;;;;15.90;70.33;100176.56;1688541;82;25789;-63
2021/06/29 03:27:35;;;;;;;21.60;12.68;;;;;;;15.93;70.46;100175.87;1660116;83;25946;-63
2021/06/29 03:30:02;;;;;;;18.02;12.00;;;;;;;15.96;70.74;100170.51;1700051;81;27333;-63
2021/06/29 03:32:30;;;;;;;18.87;12.40;;;;;;;16.00;70.90;100182.30;1705612;81;25928;-63
2021/06/29 03:34:56;;;;;;;16.80;12.43;;;;;;;16.01;70.74;100176.30;1705187;81;25773;-63
2021/06/29 03:37:23;;;;;;;19.57;12.68;;;;;;;16.06;70.93;100185.02;1695618;81;27063;-63
2021/06/29 03:39:49;;;;;;;19.57;13.28;;;;;;;16.09;70.85;100184.90;1634635;84;26719;-63
2021/06/29 03:42:15;;;;;;;20.90;15.20;;;;;;;16.13;70.92;100187.14;1682402;83;28025;-63
2021/06/29 03:44:42;;;;;;;21.33;15.15;;;;;;;16.13;71.30;100178.17;1688318;83;26804;-63
2021/06/29 03:47:08;;;;;;;19.23;14.23;;;;;;;16.18;71.57;100180.64;1684133;83;25798;-63
2021/06/29 03:49:35;;;;;;;19.57;13.72;;;;;;;16.22;71.41;100182.88;1692078;83;25910;-63
2021/06/29 03:52:01;;;;;;;20.55;14.25;;;;;;;16.27;71.63;100181.84;1681342;83;26542;-62
2021/06/29 03:54:28;;;;;;;17.92;13.05;;;;;;;16.31;71.74;100186.27;1686927;83;27331;-62
2021/06/29 03:56:54;;;;;;;17.02;13.22;;;;;;;16.36;71.94;100187.37;1689325;83;25771;-62
2021/06/29 03:59:20;;;;;;;24.72;15.25;;;;;;;16.41;72.03;100180.84;1677615;82;25966;-63
2021/06/29 04:01:47;;;;;;;17.25;11.93;;;;;;;16.43;72.03;100179.36;1693755;82;26082;-62
2021/06/29 04:04:13;;;;;;;20.08;13.70;;;;;;;16.48;72.04;100181.59;1708310;81;25880;-63
2021/06/29 04:06:40;;;;;;;19.27;14.18;;;;;;;16.53;72.10;100178.59;1695106;82;27413;-63
2021/06/29 04:09:08;;;;;;;18.87;12.98;;;;;;;16.60;72.36;100183.67;1695339;81;25720;-63
2021/06/29 04:11:35;;;;;;;23.40;13.80;;;;;;;16.69;72.43;100184.86;1707275;81;25785;-62
2021/06/29 04:14:05;;;;;;;17.77;14.00;;;;;;;16.74;72.34;100185.18;1658629;84;27789;-62
2021/06/29 04:16:32;;;;;;;19.57;14.35;;;;;;;16.79;72.41;100184.33;1638551;84;25718;-62
2021/06/29 04:18:59;;;;;;;18.98;14.90;;;;;;;16.86;72.43;100185.69;1691607;81;27590;-62
2021/06/29 04:21:25;;;;;;;21.73;14.33;;;;;;;16.94;72.38;100185.50;1674540;81;26269;-62
2021/06/29 04:23:52;;;;;;;19.65;14.20;;;;;;;17.01;72.19;100184.88;1682426;82;25885;-62
2021/06/29 04:26:19;;;;;;;21.57;14.80;;;;;;;17.09;72.37;100185.23;1697897;81;26388;-62
2021/06/29 04:28:46;;;;;;;22.98;15.32;;;;;;;17.18;72.40;100188.58;1704050;81;26599;-63
2021/06/29 04:31:16;;;;;;;18.82;13.80;;;;;;;17.29;72.34;100185.30;1693312;82;27381;-63
2021/06/29 04:33:43;;;;;;;20.20;14.63;;;;;;;17.37;72.27;100182.94;1702990;82;25758;-63
2021/06/29 04:36:09;;;;;;;22.22;13.90;;;;;;;17.47;72.25;100184.30;1679772;83;25796;-63
2021/06/29 04:38:36;;;;;;;19.07;12.95;;;;;;;17.55;72.21;100185.48;1669706;83;26225;-62
2021/06/29 04:41:02;;;;;;;18.50;13.88;;;;;;;17.66;72.32;100189.80;1685086;82;25810;-62
2021/06/29 04:43:29;;;;;;;18.17;13.13;;;;;;;17.74;72.25;100180.59;1667672;82;28936;-62
2021/06/29 04:45:56;;;;;;;17.70;12.45;;;;;;;17.85;72.32;100179.42;1707390;81;27248;-62
2021/06/29 04:48:23;;;;;;;19.55;12.60;;;;;;;17.96;72.08;100174.18;1709514;81;25782;-62
2021/06/29 04:50:50;;;;;;;14.28;11.43;;;;;;;18.06;72.03;100176.33;1700931;81;25888;-62
2021/06/29 04:53:16;;;;;;;16.73;12.35;;;;;;;18.17;71.58;100177.13;1706239;82;25958;-62
2021/06/29 04:55:44;;;;;;;17.35;11.43;;;;;;;18.25;71.40;100176.89;1712861;81;27349;-62
2021/06/29 04:58:10;;;;;;;18.25;11.65;;;;;;;18.37;71.47;100178.66;1682088;82;26595;-62
2021/06/29 05:00:39;;;;;;;16.35;11.25;;;;;;;18.48;71.29;100177.47;1691982;81;26251;-62
2021/06/29 05:03:06;;;;;;;19.32;11.48;;;;;;;18.61;71.28;100180.80;1699353;82;25800;-63
2021/06/29 05:05:33;;;;;;;17.65;12.00;;;;;;;18.70;70.86;100175.87;1707294;81;25844;-62
2021/06/29 05:07:59;;;;;;;16.80;11.85;;;;;;;18.83;70.72;100182.78;1701307;82;29536;-62
2021/06/29 05:10:28;;;;;;;19.05;12.33;;;;;;;18.94;70.32;100182.93;1698467;81;25763;-62
2021/06/29 05:12:55;;;;;;;15.23;11.80;;;;;;;19.04;70.31;100180.15;1700536;81;25841;-62
2021/06/29 05:15:21;;;;;;;15.08;12.03;;;;;;;19.18;70.11;100185.05;1701814;81;26310;-62
2021/06/29 05:17:48;;;;;;;13.85;11.63;;;;;;;19.28;69.70;100183.63;1681926;81;25819;-61
2021/06/29 05:20:17;;;;;;;15.93;10.63;;;;;;;19.41;69.69;100182.23;1682411;82;27311;-62
2021/06/29 05:22:43;;;;;;;14.35;10.85;;;;;;;19.55;69.77;100183.78;1655173;84;26621;-63
2021/06/29 05:25:11;;;;;;;14.25;10.50;;;;;;;19.70;69.49;100183.39;1643195;85;26354;-62
2021/06/29 05:27:42;;;;;;;14.43;10.15;;;;;;;19.85;69.44;100179.45;1645266;83;26589;-63
2021/06/29 05:30:10;;;;;;;12.25;10.18;;;;;;;20.01;69.22;100182.78;1709474;79;26563;-74
2021/06/29 05:32:36;;;;;;;11.43;9.70;;;;;;;20.16;68.73;100179.61;1720439;81;27894;-75
2021/06/29 05:35:06;;;;;;;11.95;9.00;;;;;;;20.31;68.33;100173.09;1730253;81;25807;-69
2021/06/29 05:37:33;;;;;;;12.25;9.98;;;;;;;20.49;68.52;100168.33;1694504;82;25862;-68
2021/06/29 05:40:00;;;;;;;11.63;8.63;;;;;;;20.69;68.31;100165.59;1723564;81;27856;-68
2021/06/29 05:42:27;;;;;;;9.40;7.35;;;;;;;20.90;68.11;100158.66;1718228;81;25829;-72
2021/06/29 05:44:53;;;;;;;9.10;7.40;;;;;;;21.13;67.36;100165.30;1731233;80;27379;-67
2021/06/29 05:47:21;;;;;;;8.93;7.20;;;;;;;21.34;66.20;100171.50;1725721;81;25682;-67
2021/06/29 05:49:49;;;;;;;11.15;7.53;;;;;;;21.53;65.88;100172.41;1713230;81;25875;-67
2021/06/29 05:52:16;;;;;;;12.90;7.83;;;;;;;21.70;65.69;100169.53;1724682;81;26625;-67
2021/06/29 05:54:44;;;;;;;10.75;7.10;;;;;;;21.88;65.33;100167.62;1687749;81;25947;-67
2021/06/29 05:57:14;;;;;;;8.58;7.22;;;;;;;22.07;64.56;100162.95;1712771;81;27537;-67
2021/06/29 05:59:42;;;;;;;8.25;6.58;;;;;;;22.23;63.83;100163.95;1715860;81;25837;-68
2021/06/29 06:02:10;;;;;;;10.15;6.78;;;;;;;22.37;63.40;100156.52;1726033;81;25712;-69
2021/06/29 06:04:37;;;;;;;13.95;6.58;;;;;;;22.54;62.12;100152.77;1719266;81;25890;-67
2021/06/29 06:07:05;;;;;;;11.53;6.67;;;;;;;22.71;62.52;100154.75;1677451;83;25882;-67
2021/06/29 06:09:32;;;;;;;9.10;6.12;;;;;;;22.91;62.05;100154.32;1687908;83;27413;-68
2021/06/29 06:11:59;;;;;;;9.08;6.10;;;;;;;23.06;60.72;100163.39;1674071;83;27196;-67
2021/06/29 06:14:26;;;;;;;7.08;6.30;;;;;;;23.19;60.08;100163.17;1685609;83;25872;-67
2021/06/29 06:16:53;;;;;;;9.20;5.87;;;;;;;23.36;59.88;100164.88;1687962;83;26716;-69
2021/06/29 06:19:19;;;;;;;10.18;5.50;;;;;;;23.51;58.67;100159.49;1682740;83;25833;-69
2021/06/29 06:21:45;;;;;;;8.60;5.47;;;;;;;23.63;58.05;100157.69;1685906;83;27367;-69
2021/06/29 06:24:12;;;;;;;8.05;5.42;;;;;;;23.75;57.37;100159.78;1641431;82;25956;-69
2021/06/29 06:26:39;;;;;;;5.85;5.20;;;;;;;23.85;57.43;100152.87;1656298;83;25993;-70
2021/06/29 06:29:05;;;;;;;12.85;5.97;;;;;;;23.97;56.73;100156.34;1681839;83;25728;-70
2021/06/29 06:31:32;;;;;;;11.48;5.67;;;;;;;24.09;56.92;100155.09;1672677;84;25895;-70
2021/06/29 06:33:58;;;;;;;8.55;5.00;;;;;;;24.20;56.29;100154.42;1642965;85;27329;-70
2021/06/29 06:36:25;;;;;;;7.22;5.30;;;;;;;24.35;55.59;100160.64;1672249;84;26193;-70
2021/06/29 06:38:51;;;;;;;6.10;4.97;;;;;;;24.44;55.18;100151.28;1669914;84;25711;-69
2021/06/29 06:41:18;;;;;;;13.98;6.15;;;;;;;24.58;55.49;100154.55;1674117;84;26146;-69
2021/06/29 06:43:45;;;;;;;6.30;5.03;;;;;;;24.72;55.54;100152.25;1660611;84;26023;-69
2021/06/29 06:46:12;;;;;;;7.75;5.58;;;;;;;24.85;54.63;100149.16;1661989;83;27346;-70
2021/06/29 06:48:42;;;;;;;8.18;5.10;;;;;;;24.95;53.92;100151.03;1698386;82;25811;-69
2021/06/29 06:51:08;;;;;;;8.08;4.85;;;;;;;25.05;54.12;100154.12;1661920;84;26183;-69
2021/06/29 06:53:34;;;;;;;10.10;5.00;;;;;;;25.21;53.84;100152.16;1665133;84;25931;-70
2021/06/29 06:56:03;;;;;;;8.15;5.05;;;;;;;25.36;53.59;100148.05;1669666;83;26507;-69
2021/06/29 06:58:29;;;;;;;12.30;4.95;;;;;;;25.54;53.23;100142.31;1719441;81;28034;-69
2021/06/29 07:00:55;;;;;;;7.37;5.85;;;;;;;25.73;52.75;100152.72;1706617;81;26743;-70
2021/06/29 07:03:22;;;;;;;8.93;5.35;;;;;;;25.90;51.55;100153.68;1726944;81;25854;-71
2021/06/29 07:05:49;;;;;;;9.08;5.62;;;;;;;26.03;51.77;100149.77;1722505;81;26187;-71
2021/06/29 07:08:15;;;;;;;10.13;5.42;;;;;;;26.22;51.63;100149.69;1701018;82;25864;-71
2021/06/29 07:10:43;;;;;;;6.75;4.85;;;;;;;26.40;50.99;100148.00;1729628;81;26416;-71
2021/06/29 07:13:09;;;;;;;6.42;4.45;;;;;;;26.57;50.26;100149.52;1717030;81;25726;-71
2021/06/29 07:15:36;;;;;;;8.83;5.00;;;;;;;26.74;50.06;100154.61;1730308;81;26527;-71
2021/06/29 07:18:03;;;;;;;7.58;4.95;;;;;;;26.97;49.98;100153.77;1713538;81;26070;-69
2021/06/29 07:20:30;;;;;;;7.47;4.55;;;;;;;27.17;48.86;100142.70;1674049;81;25949;-68
2021/06/29 07:22:56;;;;;;;6.62;4.40;;;;;;;27.31;47.80;100141.66;1693396;81;28467;-70
2021/06/29 07:25:23;;;;;;;9.08;4.30;;;;;;;27.46;47.70;100140.15;1717791;81;25955;-71
2021/06/29 07:27:49;;;;;;;8.55;4.20;;;;;;;27.63;47.03;100139.59;1703146;81;26013;-71
2021/06/29 07:30:17;;;;;;;8.38;5.35;;;;;;;27.87;47.01;100144.45;1705528;81;26372;-70
2021/06/29 07:32:43;;;;;;;6.33;4.33;;;;;;;28.13;46.91;100146.06;1696453;81;25878;-69
2021/06/29 07:35:12;;;;;;;10.60;4.33;;;;;;;28.45;46.47;100140.31;1712029;80;27227;-69
2021/06/29 07:37:38;;;;;;;7.95;4.37;;;;;;;28.75;46.00;100146.13;1735399;81;26615;-69
2021/06/29 07:40:08;;;;;;;5.92;3.20;;;;;;;29.03;45.85;100145.98;1722169;81;25705;-69
2021/06/29 07:42:35;;;;;;;5.17;3.47;;;;;;;29.36;44.65;100135.36;1713665;82;26200;-68
2021/06/29 07:45:05;;;;;;;5.53;3.60;;;;;;;29.58;44.58;100134.12;1703397;80;25867;-68
2021/06/29 07:47:32;;;;;;;6.90;5.78;;;;;;;29.88;43.34;100136.22;1730853;81;27570;-68
2021/06/29 07:49:58;;;;;;;6.90;3.37;;;;;;;30.18;43.26;100135.63;1697619;82;25854;-68
2021/06/29 07:52:25;;;;;;;5.78;3.10;;;;;;;30.47;41.76;100143.71;1687590;83;26593;-69
2021/06/29 07:54:52;;;;;;;4.75;2.98;;;;;;;30.60;40.09;100140.28;1690709;83;25808;-69
2021/06/29 07:57:18;;;;;;;4.08;3.35;;;;;;;30.65;40.79;100141.69;1652058;84;25934;-69
2021/06/29 07:59:44;;;;;;;11.97;3.83;;;;;;;30.87;39.99;100148.70;1681264;83;27401;-67
2021/06/29 08:02:11;;;;;;;6.08;3.33;;;;;;;31.04;40.46;100134.78;1682923;83;25927;-71
2021/06/29 08:04:40;;;;;;;4.28;3.27;;;;;;;31.28;40.01;100142.70;1670115;84;25750;-68
2021/06/29 08:07:07;;;;;;;5.28;3.60;;;;;;;31.32;38.83;100144.73;1690839;83;25587;-68
2021/06/29 08:09:33;;;;;;;8.83;3.67;;;;;;;31.42;38.86;100138.59;1665745;83;26211;-67
2021/06/29 08:12:00;;;;;;;4.03;3.37;;;;;;;31.55;37.90;100136.52;1675431;83;26960;-68
2021/06/29 08:14:26;;;;;;;3.35;3.05;;;;;;;31.71;37.66;100138.92;1683315;83;25777;-71
2021/06/29 08:16:53;;;;;;;8.03;3.65;;;;;;;31.64;36.76;100136.55;1663785;83;26731;-68
2021/06/29 08:19:19;;;;;;;6.90;3.98;;;;;;;31.43;36.49;100139.53;1690103;83;25863;-68
2021/06/29 08:21:46;;;;;;;5.05;3.72;;;;;;;31.47;36.95;100131.78;1687542;83;25742;-68
2021/06/29 08:24:13;;;;;;;3.67;3.20;;;;;;;31.69;36.31;100132.98;1689464;83;27377;-68
2021/06/29 08:26:39;;;;;;;4.47;3.00;;;;;;;31.80;36.57;100126.37;1714160;81;25775;-68
2021/06/29 08:29:06;;;;;;;7.62;3.35;;;;;;;32.01;36.33;100126.12;1712960;82;25773;-68
2021/06/29 08:31:37;;;;;;;4.37;3.40;;;;;;;32.29;36.09;100132.61;1721001;81;25768;-68
2021/06/29 08:34:05;;;;;;;5.62;3.42;;;;;;;32.32;35.00;100126.72;1699988;81;26085;-67
2021/06/29 08:36:33;;;;;;;5.97;3.30;;;;;;;32.25;33.72;100129.19;1721681;81;27321;-68
2021/06/29 08:39:00;;;;;;;4.03;3.25;;;;;;;31.96;33.96;100134.52;1728009;81;25753;-67
2021/06/29 08:41:26;;;;;;;3.55;3.25;;;;;;;31.99;34.45;100128.00;1725506;81;25875;-68
2021/06/29 08:43:53;;;;;;;7.70;5.22;;;;;;;32.27;34.50;100138.52;1720812;81;26238;-69
2021/06/29 08:46:19;;;;;;;3.62;3.30;;;;;;;32.56;34.99;100138.09;1726072;81;25824;-68
2021/06/29 08:48:46;;;;;;;4.65;3.35;;;;;;;32.87;33.54;100138.59;1724752;81;28203;-68
2021/06/29 08:51:14;;;;;;;5.08;3.27;;;;;;;32.71;32.53;100139.06;1724995;81;25737;-68
2021/06/29 08:53:41;;;;;;;4.47;3.65;;;;;;;32.51;32.78;100124.72;1717796;81;26423;-68
2021/06/29 08:56:14;;;;;;;5.25;3.45;;;;;;;32.36;33.07;100130.12;1711965;81;25731;-68
2021/06/29 08:58:36;;;;;;;4.28;3.22;;;;;;;32.25;33.29;100123.59;1730118;81;26657;-67
2021/06/29 09:01:02;;;;;;;4.03;3.60;;;;;;;32.35;33.93;100122.36;1712114;81;28621;-67
2021/06/29 09:03:29;;;;;;;5.15;3.72;;;;;;;32.80;34.08;100126.31;1725742;81;25858;-69
2021/06/29 09:05:56;;;;;;;3.40;3.10;;;;;;;33.17;32.78;100122.08;1718428;81;25700;-70
2021/06/29 09:08:24;;;;;;;3.08;2.87;;;;;;;33.07;31.94;100128.31;1702633;82;26062;-72
2021/06/29 09:11:14;;;;;;;3.47;2.98;;;;;;;32.83;31.65;100129.56;1694786;81;25543;-71
2021/06/29 09:13:45;;;;;;;4.40;3.30;;;;;;;32.56;31.97;100123.47;1713787;81;27397;-71
2021/06/29 09:16:32;;;;;;;3.75;3.45;;;;;;;32.34;32.33;100118.00;1688610;82;25805;-71
2021/06/29 09:19:02;;;;;;;4.17;3.20;;;;;;;32.28;32.40;100115.65;1705792;82;25527;-71
2021/06/29 09:25:03;;;;;;;4.78;3.15;;;;;;;32.53;32.77;100111.03;1715980;81;26738;-71
2021/06/29 09:27:48;;;;;;;10.30;3.60;;;;;;;33.19;32.63;100094.39;1716230;81;27336;-71
2021/06/29 09:30:41;;;;;;;5.12;4.53;;;;;;;33.64;31.91;100095.47;1719260;81;26381;-73
2021/06/29 09:33:16;;;;;;;4.30;3.72;;;;;;;33.62;30.79;100099.38;1703574;81;25976;-71
2021/06/29 09:35:48;;;;;;;4.28;3.37;;;;;;;33.21;30.40;100090.49;1711676;81;26228;-71
2021/06/29 09:38:20;;;;;;;3.50;3.20;;;;;;;33.23;31.18;100098.56;1721122;81;26107;-71
2021/06/29 09:40:58;;;;;;;3.52;3.22;;;;;;;33.23;31.18;100098.56;1720097;81;27406;-70
2021/06/29 09:43:28;;;;;;;3.80;3.30;;;;;;;33.57;30.94;100112.01;1732172;81;26361;-71
2021/06/29 09:45:59;;;;;;;5.08;2.95;;;;;;;34.00;31.01;100087.55;1713539;81;25792;-70
2021/06/29 09:48:46;;;;;;;3.12;2.92;;;;;;;34.61;30.29;100089.30;1714363;81;25684;-71
2021/06/29 09:51:27;;;;;;;3.40;2.85;;;;;;;34.97;29.56;100084.63;1725432;81;26120;-71
2021/06/29 09:53:58;;;;;;;6.35;3.65;;;;;;;35.17;28.80;100086.77;1722711;81;28309;-69
2021/06/29 09:56:41;;;;;;;4.05;3.10;;;;;;;35.26;28.21;100076.08;1722122;82;26129;-70
2021/06/29 09:59:26;;;;;;;3.62;3.08;;;;;;;35.32;28.60;100074.91;1711874;81;25950;-69
2021/06/29 10:02:07;;;;;;;3.67;3.37;;;;;;;35.58;27.72;100068.66;1720599;81;25846;-70
2021/06/29 10:04:34;;;;;;;3.87;2.90;;;;;;;35.29;27.72;100079.33;1697777;82;25700;-71
2021/06/29 10:07:17;;;;;;;5.17;3.35;;;;;;;35.31;27.80;100075.39;1732378;81;27870;-69
2021/06/29 10:09:44;;;;;;;6.40;3.15;;;;;;;35.61;28.09;100073.31;1711740;81;25971;-71
2021/06/29 10:12:11;;;;;;;4.72;3.30;;;;;;;36.07;27.83;100076.16;1730266;81;26322;-71
2021/06/29 10:14:38;;;;;;;3.60;3.37;;;;;;;36.12;26.44;100074.69;1721744;81;25869;-71
2021/06/29 10:17:09;;;;;;;5.90;3.60;;;;;;;36.03;26.28;100069.33;1730723;81;25800;-71
2021/06/29 10:20:09;;;;;;;3.33;3.02;;;;;;;35.94;26.44;100065.23;1734270;81;28204;-71
2021/06/29 10:22:18;;;;;;;4.83;3.60;;;;;;;36.21;25.82;100066.88;1721955;81;25769;-71
2021/06/29 10:24:44;;;;;;;;;;;;;;;35.67;25.72;100067.76;1726782;81;25902;-71
2021/06/29 10:27:11;;;;;;;4.28;2.70;;;;;;;35.34;25.84;100059.73;1717928;81;25748;-71
2021/06/29 10:29:37;;;;;;;3.45;3.15;;;;;;;35.46;26.24;100059.28;1709426;81;25839;-71
2021/06/29 10:32:13;;;;;;;4.20;3.80;;;;;;;35.70;26.21;100050.67;1675702;83;27378;-70
2021/06/29 10:34:40;;;;;;;3.30;3.00;;;;;;;35.65;25.99;100052.02;1680520;83;25937;-71
2021/06/29 10:37:08;;;;;;;6.03;3.40;;;;;;;35.16;25.43;100058.51;1682757;83;26125;-71
2021/06/29 10:39:38;;;;;;;5.45;3.37;;;;;;;34.49;25.60;100055.25;1703180;82;26177;-71
2021/06/29 10:42:10;;;;;;;3.27;3.08;;;;;;;34.14;25.74;100054.39;1700426;81;26105;-69
2021/06/29 10:44:42;;;;;;;7.60;3.45;;;;;;;33.73;26.05;100050.61;1709911;81;26861;-68
2021/06/29 10:47:30;;;;;;;4.08;3.52;;;;;;;33.35;27.37;100065.99;1715182;81;26165;-72
2021/06/29 10:49:59;;;;;;;5.67;3.63;;;;;;;33.35;27.37;100065.99;1719024;81;25956;-71
2021/06/29 10:52:33;;;;;;;5.33;3.62;;;;;;;33.49;27.28;100051.31;1706528;82;25950;-71
2021/06/29 10:55:32;;;;;;;3.37;3.17;;;;;;;33.82;27.27;100042.13;1703944;82;26518;-62
2021/06/29 10:58:00;;;;;;;3.33;3.00;;;;;;;33.93;26.64;100049.23;1707015;81;27632;-65
2021/06/29 11:00:34;;;;;;;4.40;3.10;;;;;;;33.89;25.84;100044.45;1708025;81;25736;-62
2021/06/29 11:03:08;;;;;;;4.60;3.33;;;;;;;33.83;26.14;100040.89;1733615;81;25815;-60
2021/06/29 11:05:48;;;;;;;4.87;3.17;;;;;;;34.00;26.55;100044.06;1714426;81;26700;-62
2021/06/29 11:08:27;;;;;;;4.85;3.08;;;;;;;33.99;25.92;100034.08;1694778;82;25813;-63
2021/06/29 11:10:53;;;;;;;4.42;3.30;;;;;;;33.95;25.93;100039.72;1707872;82;27415;-60
2021/06/29 11:13:42;;;;;;;7.05;3.17;;;;;;;34.56;26.02;100035.22;1708589;82;25764;-61
2021/06/29 11:16:09;;;;;;;6.08;2.85;;;;;;;34.56;26.02;100035.22;1705959;81;25850;-61
2021/06/29 11:18:47;;;;;;;5.80;3.50;;;;;;;34.70;26.38;100023.25;1703596;82;27835;-62
2021/06/29 11:21:27;;;;;;;3.50;3.20;;;;;;;34.91;25.51;100028.35;1719292;81;25813;-61
2021/06/29 11:23:54;;;;;;;3.87;3.30;;;;;;;35.12;24.78;100024.98;1718662;81;29491;-62
2021/06/29 11:26:21;;;;;;;4.78;3.50;;;;;;;34.97;24.28;100013.78;1717371;81;25877;-62
2021/06/29 11:28:50;;;;;;;6.87;2.98;;;;;;;34.94;24.51;100016.15;1705369;82;25904;-62
2021/06/29 11:31:30;;;;;;;4.53;3.10;;;;;;;34.79;24.99;100009.13;1711504;82;27151;-63